createdAt,value
2023-03-01T00:00:51.220Z,18.33
2023-03-01T00:05:47.263Z,18.77
2023-03-01T00:10:40.715Z,18.00
2023-03-01T00:15:36.221Z,18.10
2023-03-01T00:20:29.797Z,18.50
2023-03-01T00:25:23.547Z,17.37
2023-03-01T00:30:17.534Z,18.50
2023-03-01T00:35:12.252Z,18.00
2023-03-01T00:40:07.241Z,18.07
2023-03-01T00:45:00.496Z,18.33
2023-03-01T00:49:53.759Z,19.23
2023-03-01T00:54:48.702Z,19.07
2023-03-01T00:59:42.035Z,18.57
2023-03-01T01:04:35.373Z,20.37
2023-03-01T01:09:28.826Z,19.80
2023-03-01T01:14:23.581Z,20.03
2023-03-01T01:19:17.367Z,19.83
2023-03-01T01:24:11.619Z,18.97
2023-03-01T01:29:06.942Z,21.10
2023-03-01T01:34:03.550Z,20.53
2023-03-01T01:38:57.065Z,20.07
2023-03-01T01:44:11.837Z,20.67
2023-03-01T01:49:14.582Z,20.03
2023-03-01T01:54:16.276Z,21.13
2023-03-01T01:59:09.729Z,19.87
2023-03-01T02:04:03.334Z,21.37
2023-03-01T02:09:03.070Z,20.27
2023-03-01T02:13:57.398Z,20.57
2023-03-01T02:18:52.490Z,20.97
2023-03-01T02:23:46.066Z,22.23
2023-03-01T02:28:44.775Z,20.73
2023-03-01T02:33:41.366Z,21.13
2023-03-01T02:38:35.499Z,20.90
2023-03-01T02:43:33.194Z,21.87
2023-03-01T02:48:27.930Z,21.77
2023-03-01T02:53:32.849Z,21.90
2023-03-01T02:58:26.371Z,21.67
2023-03-01T03:03:22.939Z,21.50
2023-03-01T03:08:25.227Z,20.13
2023-03-01T03:13:20.199Z,20.90
2023-03-01T03:18:20.203Z,21.87
2023-03-01T03:23:15.009Z,19.83
2023-03-01T03:28:11.553Z,20.20
2023-03-01T03:33:05.424Z,21.57
2023-03-01T03:38:06.983Z,20.03
2023-03-01T03:43:00.338Z,19.13
2023-03-01T03:47:55.138Z,19.67
2023-03-01T03:52:48.481Z,18.37
2023-03-01T03:57:43.433Z,19.80
2023-03-01T04:02:36.821Z,19.33
2023-03-01T04:07:31.574Z,19.13
2023-03-01T04:12:29.168Z,19.10
2023-03-01T04:17:22.594Z,19.37
2023-03-01T04:22:18.527Z,19.17
2023-03-01T04:27:13.714Z,19.27
2023-03-01T04:32:07.257Z,19.53
2023-03-01T04:37:00.621Z,19.47
2023-03-01T04:41:54.228Z,19.20
2023-03-01T04:46:52.416Z,19.43
2023-03-01T04:51:45.752Z,19.23
2023-03-01T04:56:39.125Z,17.90
2023-03-01T05:01:32.566Z,19.33
2023-03-01T05:06:27.345Z,21.13
2023-03-01T05:11:20.780Z,19.23
2023-03-01T05:16:14.213Z,19.57
2023-03-01T05:21:10.042Z,19.30
2023-03-01T05:26:09.514Z,19.30
2023-03-01T05:31:10.622Z,19.20
2023-03-01T05:36:04.603Z,19.00
2023-03-01T05:40:58.043Z,19.67
2023-03-01T05:45:53.077Z,19.30
2023-03-01T05:50:48.235Z,19.73
2023-03-01T05:55:42.383Z,19.90
2023-03-01T06:00:37.067Z,19.50
2023-03-01T06:05:32.150Z,20.03
2023-03-01T06:10:25.816Z,19.60
2023-03-01T06:15:19.848Z,18.60
2023-03-01T06:20:17.269Z,18.93
2023-03-01T06:25:14.030Z,20.40
2023-03-01T06:30:11.049Z,21.10
2023-03-01T06:35:04.524Z,20.77
2023-03-01T06:40:08.364Z,20.30
2023-03-01T06:45:03.174Z,20.23
2023-03-01T06:49:56.458Z,20.07
2023-03-01T06:54:49.762Z,19.83
2023-03-01T06:59:43.034Z,20.07
2023-03-01T07:04:37.837Z,19.20
2023-03-01T07:09:31.480Z,19.90
2023-03-01T07:14:26.850Z,20.17
2023-03-01T07:19:20.310Z,19.73
2023-03-01T07:24:16.702Z,20.43
2023-03-01T07:29:12.759Z,20.87
2023-03-01T07:34:07.758Z,20.27
2023-03-01T07:39:03.368Z,21.50
2023-03-01T07:43:58.140Z,21.67
2023-03-01T07:48:51.454Z,21.87
2023-03-01T07:53:47.538Z,22.03
2023-03-01T07:58:44.095Z,21.63
2023-03-01T08:03:39.894Z,22.40
2023-03-01T08:08:34.447Z,22.60
2023-03-01T08:13:28.453Z,20.97
2023-03-01T08:18:23.547Z,21.43
2023-03-01T08:23:18.385Z,20.60
2023-03-01T08:28:11.973Z,21.53
2023-03-01T08:33:08.158Z,20.90
2023-03-01T08:38:01.960Z,20.40
2023-03-01T08:42:57.070Z,21.17
2023-03-01T08:47:54.457Z,22.07
2023-03-01T08:52:47.962Z,21.27
2023-03-01T08:57:41.306Z,20.87
2023-03-01T09:02:36.222Z,20.40
2023-03-01T09:07:30.273Z,21.13
2023-03-01T09:12:25.884Z,21.40
2023-03-01T09:17:19.368Z,21.27
2023-03-01T09:22:14.134Z,20.37
2023-03-01T09:27:09.709Z,19.70
2023-03-01T09:32:03.134Z,20.10
2023-03-01T09:36:56.527Z,19.87
2023-03-01T09:42:03.218Z,21.20
2023-03-01T09:46:59.269Z,19.77
2023-03-01T09:52:02.807Z,18.83
2023-03-01T09:57:13.602Z,21.20
2023-03-01T10:02:27.210Z,19.87
2023-03-01T10:07:35.089Z,20.73
2023-03-01T10:12:38.059Z,20.50
2023-03-01T10:17:38.587Z,20.70
2023-03-01T10:22:34.548Z,20.10
2023-03-01T10:27:40.540Z,20.77
2023-03-01T10:32:34.033Z,22.07
2023-03-01T10:37:28.434Z,20.30
2023-03-01T10:42:31.742Z,22.77
2023-03-01T10:47:29.131Z,19.83
2023-03-01T10:52:27.129Z,20.73
2023-03-01T10:57:37.136Z,20.77
2023-03-01T11:02:35.217Z,20.07
2023-03-01T11:07:28.933Z,20.37
2023-03-01T11:12:23.952Z,20.77
2023-03-01T11:17:25.319Z,21.83
2023-03-01T11:22:24.157Z,20.37
2023-03-01T11:27:23.937Z,19.50
2023-03-01T11:32:20.156Z,19.87
2023-03-01T11:37:30.927Z,20.03
2023-03-01T11:42:43.302Z,19.87
2023-03-01T11:48:01.786Z,20.93
2023-03-01T11:53:29.662Z,20.57
2023-03-01T11:58:46.180Z,20.37
2023-03-01T12:04:27.464Z,20.47
2023-03-01T12:09:45.478Z,19.83
2023-03-01T12:15:10.283Z,20.70
2023-03-01T12:20:32.747Z,18.97
2023-03-01T12:25:35.930Z,19.17
2023-03-01T12:30:49.121Z,19.83
2023-03-01T12:36:15.579Z,19.53
2023-03-01T12:41:40.328Z,19.40
2023-03-01T12:46:54.153Z,19.83
2023-03-01T12:51:58.757Z,19.00
2023-03-01T12:56:54.258Z,19.83
2023-03-01T13:01:58.310Z,19.83
2023-03-01T13:07:11.672Z,19.77
2023-03-01T13:12:13.041Z,19.53
2023-03-01T13:17:34.816Z,19.87
2023-03-01T13:22:39.756Z,20.00
2023-03-01T13:27:38.268Z,20.40
2023-03-01T13:32:48.827Z,18.80
2023-03-01T13:37:46.426Z,18.23
2023-03-01T13:42:56.124Z,18.90
2023-03-01T13:48:00.655Z,17.63
2023-03-01T13:53:03.896Z,19.07
2023-03-01T13:58:01.442Z,19.43
2023-03-01T14:03:13.510Z,18.67
2023-03-01T14:08:24.048Z,19.23
2023-03-01T14:13:38.526Z,20.77
2023-03-01T14:18:42.176Z,19.17
2023-03-01T14:23:37.745Z,20.10
2023-03-01T14:28:34.555Z,20.03
2023-03-01T14:33:32.158Z,19.53
2023-03-01T14:38:32.497Z,19.67
2023-03-01T14:43:28.006Z,19.37
2023-03-01T14:48:22.315Z,19.60
2023-03-01T14:53:21.949Z,19.67
2023-03-01T14:58:20.827Z,20.37
2023-03-01T15:03:26.765Z,20.33
2023-03-01T15:08:26.892Z,20.30
2023-03-01T15:13:26.291Z,19.57
2023-03-01T15:18:25.031Z,19.63
2023-03-01T15:23:33.030Z,20.40
2023-03-01T15:28:30.094Z,19.87
2023-03-01T15:33:35.357Z,20.53
2023-03-01T15:38:41.581Z,20.17
2023-03-01T15:43:45.939Z,19.70
2023-03-01T15:48:40.889Z,19.43
2023-03-01T15:53:37.759Z,20.20
2023-03-01T15:58:32.908Z,20.10
2023-03-01T16:03:26.361Z,20.27
2023-03-01T16:08:21.560Z,20.83
2023-03-01T16:13:15.232Z,19.93
2023-03-01T16:18:11.331Z,21.20
2023-03-01T16:23:08.536Z,19.67
2023-03-01T16:28:09.715Z,20.40
2023-03-01T16:33:19.266Z,21.07
2023-03-01T16:38:19.380Z,20.77
2023-03-01T16:43:14.108Z,20.80
2023-03-01T16:48:08.180Z,20.43
2023-03-01T16:53:01.592Z,21.07
2023-03-01T16:57:54.896Z,21.23
2023-03-01T17:02:49.761Z,21.23
2023-03-01T17:07:43.485Z,21.80
2023-03-01T17:12:37.421Z,21.87
2023-03-01T17:17:30.778Z,19.80
2023-03-01T17:22:25.568Z,21.53
2023-03-01T17:27:19.433Z,19.50
2023-03-01T17:32:12.919Z,20.77
2023-03-01T17:37:06.600Z,20.17
2023-03-01T17:42:01.335Z,19.03
2023-03-01T17:46:54.637Z,20.40
2023-03-01T17:51:49.525Z,18.97
2023-03-01T17:57:26.313Z,19.83
2023-03-01T18:02:47.749Z,20.50
2023-03-01T18:07:49.423Z,19.87
2023-03-01T18:19:15.460Z,19.40
2023-03-01T18:24:09.031Z,19.83
2023-03-01T18:35:39.201Z,19.67
2023-03-01T18:40:38.086Z,18.53
2023-03-01T18:45:34.935Z,20.97
2023-03-01T18:50:38.100Z,20.77
2023-03-01T18:55:32.948Z,20.40
2023-03-01T19:00:33.263Z,20.40
2023-03-01T19:05:35.141Z,19.40
2023-03-01T19:10:32.917Z,20.67
2023-03-01T19:15:29.499Z,20.53
2023-03-01T19:20:25.038Z,20.80
2023-03-01T19:25:18.802Z,23.20
2023-03-01T19:30:15.265Z,21.83
2023-03-01T19:35:11.351Z,20.70
2023-03-01T19:40:30.123Z,21.60
2023-03-01T19:45:32.912Z,21.40
2023-03-01T19:50:26.906Z,22.67
2023-03-01T19:55:20.262Z,21.77
2023-03-01T20:00:15.318Z,22.73
2023-03-01T20:05:12.055Z,20.87
2023-03-01T20:10:06.334Z,21.70
2023-03-01T20:14:59.745Z,21.30
2023-03-01T20:19:53.372Z,21.50
2023-03-01T20:24:48.128Z,22.53
2023-03-01T20:29:41.546Z,22.60
2023-03-01T20:34:34.953Z,24.17
2023-03-01T20:39:29.408Z,23.03
2023-03-01T20:44:24.193Z,22.67
2023-03-01T20:49:17.739Z,22.07
2023-03-01T20:54:11.403Z,21.73
2023-03-01T20:59:05.576Z,21.57
2023-03-01T21:04:00.541Z,21.57
2023-03-01T21:08:55.586Z,21.07
2023-03-01T21:13:48.974Z,23.23
2023-03-01T21:18:42.932Z,21.67
2023-03-01T21:23:40.199Z,22.47
2023-03-01T21:28:34.435Z,23.00
2023-03-01T21:33:27.836Z,22.00
2023-03-01T21:38:21.265Z,22.33
2023-03-01T21:43:15.972Z,22.37
2023-03-01T21:48:09.282Z,22.17
2023-03-01T21:53:05.316Z,22.47
2023-03-01T21:57:58.804Z,21.23
2023-03-01T22:02:58.221Z,21.67
2023-03-01T22:07:51.825Z,21.97
2023-03-01T22:12:45.100Z,21.63
2023-03-01T22:17:38.370Z,23.57
2023-03-01T22:22:33.601Z,22.93
2023-03-01T22:27:27.008Z,21.87
2023-03-01T22:32:20.482Z,22.97
2023-03-01T22:37:13.851Z,23.20
2023-03-01T22:42:09.764Z,22.20
2023-03-01T22:47:03.117Z,22.17
2023-03-01T22:51:58.819Z,23.10
2023-03-01T22:56:53.170Z,23.03
2023-03-01T23:01:48.479Z,23.07
2023-03-01T23:06:50.712Z,24.40
2023-03-01T23:11:45.090Z,23.63
2023-03-01T23:16:38.491Z,23.13
2023-03-01T23:21:34.405Z,30.77
2023-03-01T23:26:29.573Z,26.20
2023-03-01T23:31:23.096Z,25.80
2023-03-01T23:36:20.265Z,24.40
2023-03-01T23:41:17.409Z,25.53
2023-03-01T23:46:14.493Z,24.20
2023-03-01T23:51:08.936Z,25.83
2023-03-01T23:56:02.787Z,23.17
